Latest Coastal Weather Observations for Holmes Reef

IDQ60701

Issued at 12:21 am EST Sunday 29 March 2015 (issued every 10 minutes, with the page automatically refreshed every 10 minutes)

About coastal observations | Map of coastal stations | Coastal observations for QLD | Marine services | Other Formats
Station Details ID: 200732 Name: HOLMES REEF Lat: -16.47 Lon: 147.87 Height: 1.9 m
Data from the previous 72 hours. | See also: Recent months at Holmes Reef
Date/Time
EST
Temp

°C
Wind Pressure Rain
since 9am
mm
Weather Cloud Vis
km
Sea
Height
m
Swell
Dir
 
Speed
knots
Gust
knots
hPa Trend Height
m
Period
s
Dir
29/12:20am 24.3 SE 25 23 1014.0 - - - - - - - - -
29/12:00am 25.9 ESE 25 31 1014.2 - - - - - - - - -
 
Date/Time
EST
Temp

°C
Wind Pressure Rain
since 9am
mm
Weather Cloud Vis
km
Sea
Height
m
Swell
Dir
 
Speed
knots
Gust
knots
hPa Trend Height
m
Period
s
Dir
28/11:30pm 26.5 ESE 23 26 1014.4 - - - - - - - - -
28/11:20pm 26.3 ESE 25 - 1014.0 - - - - - - - - -
28/11:00pm 27.0 ESE 22 26 1014.4 - - - - - - - - -
28/10:51pm 26.1 ESE 20 23 1014.4 - - - - - - - - -
28/10:30pm 26.1 E 15 20 1014.7 - - - - - - - - -
28/10:20pm 25.3 E 22 - 1014.6 - - - - - - - - -
28/10:00pm 26.1 E 26 29 1014.8 - - - - - - - - -
28/09:55pm 26.2 E 25 28 1014.7 - - - - - - - - -
28/09:30pm 27.6 ESE 18 21 1014.6 - - - - - - - - -
28/09:20pm 27.6 ESE 18 - 1014.2 - - - - - - - - -
28/09:00pm 27.5 ESE 18 22 1014.4 - - - - - - - - -
28/08:30pm 27.4 ESE 18 21 1014.3 - - - - - - - - -
28/08:20pm 27.2 ESE 19 - 1014.0 - - - - - - - - -
28/08:00pm 27.2 ESE 19 27 1014.2 - - - - - - - - -
28/07:30pm 27.4 ESE 19 23 1013.9 - - - - - - - - -
28/07:20pm 27.6 ESE 19 - 1013.5 - - - - - - - - -
28/07:00pm 27.5 ESE 18 21 1013.6 - - - - - - - - -
28/06:30pm 27.7 ESE 20 22 1013.2 - - - - - - - - -
28/06:20pm 27.7 ESE 18 - 1012.8 - - - - - - - - -
28/06:00pm 27.7 ESE 19 21 1012.9 - - - - - - - - -
28/05:30pm 27.7 SE 18 21 1012.6 - - - - - - - - -
28/05:20pm 27.7 SE 18 - 1012.2 - - - - - - - - -
28/05:00pm 27.4 SE 18 20 1012.4 - - - - - - - - -
28/04:30pm 27.7 ESE 19 21 1012.2 - - - - - - - - -
28/04:20pm 27.7 ESE 18 - 1011.9 - - - - - - - - -
28/04:00pm 27.6 SE 19 23 1012.2 - - - - - - - - -
28/03:30pm 27.8 SE 18 20 1012.3 - - - - - - - - -
28/03:20pm 27.8 SE 18 - 1012.0 - - - - - - - - -
28/03:00pm 27.7 SE 19 21 1012.3 - - - - - - - - -
28/02:30pm 27.8 SE 18 21 1012.5 - - - - - - - - -
28/02:20pm 27.8 ESE 20 - 1012.3 - - - - - - - - -
28/02:00pm 27.8 ESE 20 22 1012.7 - - - - - - - - -
28/01:30pm 27.7 SE 20 22 1012.9 - - - - - - - - -
28/01:20pm 27.6 SE 19 - 1012.8 - - - - - - - - -
28/01:00pm 27.4 SE 18 21 1013.4 - - - - - - - - -
28/12:30pm 27.5 SE 18 20 1013.9 - - - - - - - - -
28/12:20pm 27.6 SE 16 - 1013.7 - - - - - - - - -
28/12:00pm 27.5 ESE 17 20 1014.3 - - - - - - - - -
28/11:30am 27.8 ESE 17 19 1014.8 - - - - - - - - -
28/11:20am 27.7 ESE 15 - 1014.7 - - - - - - - - -
28/11:00am 27.6 SE 16 18 1015.1 - - - - - - - - -
28/10:30am 27.5 SE 15 18 1015.4 - - - - - - - - -
28/10:20am 27.5 ESE 15 - 1015.1 - - - - - - - - -
28/10:00am 27.4 ESE 14 16 1015.5 - - - - - - - - -
28/09:30am 27.4 SE 15 17 1015.7 - - - - - - - - -
28/09:20am 27.4 ESE 14 - 1015.3 - - - - - - - - -
28/09:00am 27.5 ESE 14 16 1015.6 - - - - - - - - -
28/08:30am 27.3 ESE 14 17 1015.5 - - - - - - - - -
28/08:20am 27.3 ESE 14 - 1015.1 - - - - - - - - -
28/08:00am 27.3 ESE 14 16 1015.1 - - - - - - - - -
28/07:30am 27.4 ESE 14 17 1014.8 - - - - - - - - -
28/07:19am 27.4 ESE 15 - 1014.4 - - - - - - - - -
28/07:00am 27.3 ESE 14 16 1014.7 - - - - - - - - -
28/06:30am 27.2 ESE 14 16 1014.3 - - - - - - - - -
28/06:19am 27.1 ESE 15 - 1014.0 - - - - - - - - -
28/06:00am 27.0 ESE 16 18 1014.0 - - - - - - - - -
28/05:30am 27.0 ESE 16 18 1013.7 - - - - - - - - -
28/05:19am 27.1 ESE 13 - 1013.4 - - - - - - - - -
28/05:00am 27.0 ESE 14 16 1013.5 - - - - - - - - -
28/04:30am 27.0 E 15 17 1013.3 - - - - - - - - -
28/04:19am 27.1 ESE 15 - 1013.0 - - - - - - - - -
28/04:00am 27.2 E 14 16 1013.1 - - - - - - - - -
28/03:30am 27.2 ESE 15 17 1013.1 - - - - - - - - -
28/03:19am 27.1 E 15 - 1012.9 - - - - - - - - -
28/03:00am 27.2 E 14 15 1013.3 - - - - - - - - -
28/02:30am 27.3 E 15 17 1013.5 - - - - - - - - -
28/02:19am 27.3 E 14 - 1013.2 - - - - - - - - -
28/02:00am 27.3 E 15 18 1013.6 - - - - - - - - -
28/01:30am 27.4 E 16 18 1013.8 - - - - - - - - -
28/01:19am 27.3 E 18 - 1013.6 - - - - - - - - -
28/01:00am 27.4 E 18 21 1014.0 - - - - - - - - -
28/12:30am 27.4 E 19 21 1014.2 - - - - - - - - -
28/12:19am 27.4 E 17 - 1014.0 - - - - - - - - -
28/12:00am 27.5 E 17 20 1014.6 - - - - - - - - -
 
Date/Time
EST
Temp

°C
Wind Pressure Rain
since 9am
mm
Weather Cloud Vis
km
Sea
Height
m
Swell
Dir
 
Speed
knots
Gust
knots
hPa Trend Height
m
Period
s
Dir
27/11:30pm 26.9 ESE 14 17 1014.9 - - - - - - - - -
27/11:19pm 26.7 ESE 14 - 1014.7 - - - - - - - - -
27/11:00pm 25.4 SSE 18 20 1015.4 - - - - - - - - -
27/10:30pm 25.7 SE 21 25 1015.6 - - - - - - - - -
27/10:19pm 27.0 E 16 - 1015.1 - - - - - - - - -
27/10:00pm 26.3 E 19 22 1015.4 - - - - - - - - -
27/09:30pm 27.7 E 14 16 1015.2 - - - - - - - - -
27/09:19pm 27.8 ESE 13 - 1014.9 - - - - - - - - -
27/09:00pm 27.8 ESE 13 15 1015.0 - - - - - - - - -
27/08:30pm 27.9 ESE 13 15 1014.8 - - - - - - - - -
27/08:19pm 27.8 ESE 14 - 1014.3 - - - - - - - - -
27/08:00pm 27.8 ESE 14 17 1014.5 - - - - - - - - -
27/07:30pm 27.7 ESE 15 18 1014.1 - - - - - - - - -
27/07:19pm 27.7 ESE 15 - 1013.7 - - - - - - - - -
27/07:00pm 27.7 ESE 14 16 1013.9 - - - - - - - - -
27/06:30pm 27.7 ESE 12 14 1013.6 - - - - - - - - -
27/06:19pm 27.7 SE 11 - 1013.3 - - - - - - - - -
27/06:00pm 27.8 ESE 12 14 1013.3 - - - - - - - - -
27/05:30pm 27.9 ESE 11 13 1013.0 - - - - - - - - -
27/05:19pm 28.0 ESE 11 - 1012.6 - - - - - - - - -
27/05:00pm 28.1 ESE 13 15 1012.7 - - - - - - - - -
27/04:30pm 27.8 ESE 11 14 1012.6 - - - - - - - - -
27/04:19pm 27.7 ESE 12 - 1012.3 - - - - - - - - -
27/04:00pm 27.7 SSE 8 12 1012.6 - - - - - - - - -
27/03:30pm 28.0 SE 10 11 1012.5 - - - - - - - - -
27/03:19pm 28.0 ESE 11 - 1012.3 - - - - - - - - -
27/03:00pm 28.1 ESE 9 11 1012.7 - - - - - - - - -
27/02:30pm 28.0 E 10 12 1012.8 - - - - - - - - -
27/02:19pm 28.0 E 10 - 1012.7 - - - - - - - - -
27/02:00pm 27.9 E 9 11 1013.1 - - - - - - - - -
27/01:30pm 27.8 E 10 12 1013.4 - - - - - - - - -
27/01:19pm 27.8 E 9 - 1013.3 - - - - - - - - -
27/01:00pm 27.8 E 10 11 1013.8 - - - - - - - - -
27/12:30pm 27.8 E 11 13 1014.2 - - - - - - - - -
27/12:19pm 27.7 E 12 - 1014.1 - - - - - - - - -
27/12:00pm 27.6 E 12 14 1014.7 - - - - - - - - -
27/11:30am 27.6 E 15 17 1015.2 - - - - - - - - -
27/11:19am 27.7 E 16 - 1015.1 - - - - - - - - -
27/11:00am 27.7 E 14 16 1015.6 - - - - - - - - -
27/10:30am 27.7 E 16 17 1015.8 - - - - - - - - -
27/10:19am 27.6 E 16 - 1015.6 - - - - - - - - -
27/10:00am 27.8 E 17 19 1016.0 - - - - - - - - -
27/09:30am 27.7 E 17 20 1016.1 - - - - - - - - -
27/09:19am 27.8 E 16 - 1015.7 - - - - - - - - -
27/09:00am 27.7 E 15 17 1015.9 - - - - - - - - -
27/08:30am 27.6 ESE 17 19 1015.7 - - - - - - - - -
27/08:19am 27.5 ESE 17 - 1015.3 - - - - - - - - -
27/08:00am 27.5 E 16 19 1015.5 - - - - - - - - -
27/07:30am 27.5 ESE 16 18 1015.2 - - - - - - - - -
27/07:19am 27.5 E 15 - 1014.8 - - - - - - - - -
27/07:00am 27.5 ESE 15 18 1015.0 - - - - - - - - -
27/06:30am 27.3 ESE 15 17 1014.6 - - - - - - - - -
27/06:19am 27.3 ESE 15 - 1014.3 - - - - - - - - -
27/06:00am 27.2 ESE 15 18 1014.5 - - - - - - - - -
27/05:30am 27.1 E 14 16 1014.4 - - - - - - - - -
27/05:19am 27.2 E 14 - 1014.0 - - - - - - - - -
27/05:00am 27.2 E 13 15 1014.1 - - - - - - - - -
27/04:30am 27.1 E 12 14 1013.9 - - - - - - - - -
27/04:19am 27.1 E 12 - 1013.5 - - - - - - - - -
27/04:00am 27.2 E 13 14 1013.7 - - - - - - - - -
27/03:30am 27.2 E 12 13 1013.8 - - - - - - - - -
27/03:19am 27.3 E 12 - 1013.6 - - - - - - - - -
27/03:00am 27.2 E 12 13 1013.9 - - - - - - - - -
27/02:30am 27.2 E 12 14 1014.1 - - - - - - - - -
27/02:19am 27.3 E 11 - 1014.0 - - - - - - - - -
27/02:00am 27.3 ESE 11 13 1014.6 - - - - - - - - -
27/01:30am 27.3 E 11 13 1014.9 - - - - - - - - -
27/01:19am 27.3 E 11 - 1014.7 - - - - - - - - -
27/01:00am 27.4 ESE 11 13 1015.1 - - - - - - - - -
27/12:30am 27.4 E 10 11 1015.4 - - - - - - - - -
27/12:19am 27.4 ESE 11 - 1015.2 - - - - - - - - -
27/12:00am 27.3 ESE 12 14 1015.6 - - - - - - - - -
 
Date/Time
EST
Temp

°C
Wind Pressure Rain
since 9am
mm
Weather Cloud Vis
km
Sea
Height
m
Swell
Dir
 
Speed
knots
Gust
knots
hPa Trend Height
m
Period
s
Dir
26/11:30pm 27.4 ESE 12 14 1015.6 - - - - - - - - -
26/11:19pm 27.4 ESE 12 - 1015.4 - - - - - - - - -
26/11:00pm 27.4 ESE 12 14 1015.8 - - - - - - - - -
26/10:30pm 27.4 E 12 14 1015.7 - - - - - - - - -
26/10:19pm 27.4 E 13 - 1015.4 - - - - - - - - -
26/10:00pm 27.4 ESE 13 15 1015.6 - - - - - - - - -
26/09:30pm 27.3 ESE 14 17 1015.6 - - - - - - - - -
26/09:19pm 27.4 ESE 14 - 1015.2 - - - - - - - - -
26/09:00pm 27.4 ESE 14 17 1015.3 - - - - - - - - -
26/08:30pm 27.4 ESE 14 16 1015.1 - - - - - - - - -
26/08:19pm 27.5 ESE 14 - 1014.7 - - - - - - - - -
26/08:00pm 27.5 ESE 14 17 1014.9 - - - - - - - - -
26/07:30pm 27.4 ESE 15 17 1014.7 - - - - - - - - -
26/07:19pm 27.5 ESE 16 - 1014.3 - - - - - - - - -
26/07:00pm 27.4 ESE 16 19 1014.4 - - - - - - - - -
26/06:30pm 27.5 ESE 14 17 1014.1 - - - - - - - - -
26/06:19pm 27.6 ESE 14 - 1013.8 - - - - - - - - -
26/06:00pm 27.5 ESE 14 15 1014.0 - - - - - - - - -
26/05:30pm 27.7 ESE 14 16 1013.6 - - - - - - - - -
26/05:19pm 27.7 ESE 14 - 1013.2 - - - - - - - - -
26/05:00pm 27.8 ESE 13 15 1013.3 - - - - - - - - -
26/04:30pm 27.6 ESE 13 15 1013.1 - - - - - - - - -
26/04:19pm 27.7 SE 13 - 1012.8 - - - - - - - - -
26/04:00pm 27.6 ESE 12 15 1013.0 - - - - - - - - -
26/03:30pm 27.7 SE 12 14 1012.9 - - - - - - - - -
26/03:19pm 27.7 ESE 12 - 1012.6 - - - - - - - - -
26/03:00pm 27.8 ESE 12 14 1012.9 - - - - - - - - -
26/02:30pm 27.7 ESE 12 14 1013.1 - - - - - - - - -
26/02:19pm 27.7 ESE 12 - 1012.9 - - - - - - - - -
26/02:00pm 27.7 ESE 12 14 1013.4 - - - - - - - - -
26/01:30pm 27.7 ESE 13 15 1013.6 - - - - - - - - -
26/01:19pm 27.7 ESE 13 - 1013.4 - - - - - - - - -
26/01:00pm 27.7 ESE 14 16 1013.9 - - - - - - - - -
26/12:30pm 27.6 E 13 15 1014.4 - - - - - - - - -
26/12:19pm 27.7 ESE 14 - 1014.3 - - - - - - - - -
26/12:00pm 27.6 E 14 16 1014.8 - - - - - - - - -
26/11:30am 27.7 E 14 17 1015.2 - - - - - - - - -
26/11:19am 27.6 E 14 - 1014.9 - - - - - - - - -
26/11:00am 27.7 E 13 15 1015.3 - - - - - - - - -
26/10:30am 27.6 E 14 17 1015.4 - - - - - - - - -
26/10:19am 27.7 E 14 - 1015.1 - - - - - - - - -
26/10:00am 27.7 E 14 16 1015.5 - - - - - - - - -
26/09:30am 27.6 E 15 17 1015.5 - - - - - - - - -
26/09:19am 27.5 E 14 - 1015.1 - - - - - - - - -
26/09:00am 27.6 E 15 17 1015.4 - - - - - - - - -
26/08:30am 27.6 ESE 13 15 1015.3 - - - - - - - - -
26/08:19am 27.6 ESE 12 - 1015.0 - - - - - - - - -
26/08:00am 27.6 ESE 11 14 1015.3 - - - - - - - - -
26/07:30am 27.7 ESE 12 13 1014.9 - - - - - - - - -
26/07:19am 27.7 ESE 12 - 1014.6 - - - - - - - - -
26/07:00am 27.6 ESE 12 13 1014.9 - - - - - - - - -
26/06:30am 27.3 ESE 10 12 1014.7 - - - - - - - - -
26/06:19am 27.3 ESE 10 - 1014.4 - - - - - - - - -
26/06:00am 27.3 ESE 10 12 1014.5 - - - - - - - - -
26/05:30am 27.2 SE 10 11 1014.2 - - - - - - - - -
26/05:19am 27.2 ESE 10 - 1013.9 - - - - - - - - -
26/05:00am 27.2 ESE 11 12 1014.0 - - - - - - - - -
26/04:30am 27.3 SE 10 13 1013.9 - - - - - - - - -
26/04:19am 27.3 ESE 10 - 1013.5 - - - - - - - - -
26/04:00am 27.2 ESE 10 12 1013.6 - - - - - - - - -
26/03:30am 27.1 ESE 10 11 1013.7 - - - - - - - - -
26/03:19am 27.2 ESE 10 - 1013.4 - - - - - - - - -
26/03:00am 27.2 ESE 10 11 1013.7 - - - - - - - - -
26/02:30am 27.2 ESE 10 11 1013.9 - - - - - - - - -
26/02:19am 27.2 ESE 10 - 1013.7 - - - - - - - - -
26/02:00am 27.2 ESE 10 11 1014.1 - - - - - - - - -
26/01:30am 27.3 E 10 12 1014.2 - - - - - - - - -
26/01:19am 27.3 E 11 - 1013.9 - - - - - - - - -
26/01:00am 27.3 E 11 13 1014.4 - - - - - - - - -
26/12:30am 27.4 ESE 12 14 1014.6 - - - - - - - - -

Other Formats:

Comma delimited format used in spreadsheet applications
http://www.bom.gov.au/fwo/IDQ60701/IDQ60701.94289.axf

JavaScript Object Notation format (JSON) in row-major order
http://www.bom.gov.au/fwo/IDQ60701/IDQ60701.94289.json